sensor_id;sensor_type;location;lat;lon;timestamp;pressure;altitude;pressure_sealevel;temperature;humidity
1736;BME280;865;53.672;10.250;2023-05-27T00:01:43;102557.47;;;9.01;100.00
1736;BME280;865;53.672;10.250;2023-05-27T00:04:09;102560.88;;;8.99;100.00
1736;BME280;865;53.672;10.250;2023-05-27T00:06:36;102553.81;;;8.90;100.00
1736;BME280;865;53.672;10.250;2023-05-27T00:09:02;102558.91;;;8.85;100.00
1736;BME280;865;53.672;10.250;2023-05-27T00:11:29;102558.91;;;8.84;100.00
1736;BME280;865;53.672;10.250;2023-05-27T00:13:55;102555.44;;;8.85;100.00
1736;BME280;865;53.672;10.250;2023-05-27T00:16:22;102558.75;;;8.75;100.00
1736;BME280;865;53.672;10.250;2023-05-27T00:18:49;102563.03;;;8.73;100.00
1736;BME280;865;53.672;10.250;2023-05-27T00:21:15;102573.66;;;8.83;100.00
1736;BME280;865;53.672;10.250;2023-05-27T00:23:46;102562.28;;;8.80;100.00
1736;BME280;865;53.672;10.250;2023-05-27T00:26:13;102553.72;;;8.85;100.00
1736;BME280;865;53.672;10.250;2023-05-27T00:28:39;102558.91;;;8.85;100.00
1736;BME280;865;53.672;10.250;2023-05-27T00:31:06;102558.09;;;8.88;100.00
1736;BME280;865;53.672;10.250;2023-05-27T00:33:32;102558.13;;;8.89;100.00
1736;BME280;865;53.672;10.250;2023-05-27T00:35:58;102555.50;;;8.88;100.00
1736;BME280;865;53.672;10.250;2023-05-27T00:38:25;102551.09;;;8.84;100.00
1736;BME280;865;53.672;10.250;2023-05-27T00:40:53;102556.09;;;8.73;100.00
1736;BME280;865;53.672;10.250;2023-05-27T00:43:19;102563.09;;;8.76;100.00
1736;BME280;865;53.672;10.250;2023-05-27T00:45:46;102555.91;;;8.62;100.00
1736;BME280;865;53.672;10.250;2023-05-27T00:48:12;102542.91;;;8.61;100.00
1736;BME280;865;53.672;10.250;2023-05-27T00:50:39;102556.81;;;8.64;100.00
1736;BME280;865;53.672;10.250;2023-05-27T00:53:06;102559.47;;;8.66;100.00
1736;BME280;865;53.672;10.250;2023-05-27T00:55:32;102551.50;;;8.58;100.00
1736;BME280;865;53.672;10.250;2023-05-27T00:57:59;102556.81;;;8.64;100.00
1736;BME280;865;53.672;10.250;2023-05-27T01:00:25;102560.53;;;8.79;100.00
1736;BME280;865;53.672;10.250;2023-05-27T01:02:52;102550.97;;;8.76;100.00
1736;BME280;865;53.672;10.250;2023-05-27T01:05:19;102551.72;;;8.69;100.00
1736;BME280;865;53.672;10.250;2023-05-27T01:08:08;102543.75;;;8.60;100.00
1736;BME280;865;53.672;10.250;2023-05-27T01:10:45;102554.00;;;8.52;100.00
1736;BME280;865;53.672;10.250;2023-05-27T01:15:51;102556.81;;;8.63;100.00
1736;BME280;865;53.672;10.250;2023-05-27T01:18:21;102554.31;;;8.71;100.00
1736;BME280;865;53.672;10.250;2023-05-27T01:20:51;102557.56;;;8.57;100.00
1736;BME280;865;53.672;10.250;2023-05-27T01:23:18;102557.31;;;8.43;100.00
1736;BME280;865;53.672;10.250;2023-05-27T01:25:44;102561.50;;;8.37;100.00
1736;BME280;865;53.672;10.250;2023-05-27T01:28:11;102550.81;;;8.21;100.00
1736;BME280;865;53.672;10.250;2023-05-27T01:30:37;102551.59;;;8.17;100.00
1736;BME280;865;53.672;10.250;2023-05-27T01:33:07;102551.16;;;7.94;100.00
1736;BME280;865;53.672;10.250;2023-05-27T01:35:42;102562.03;;;7.76;100.00
1736;BME280;865;53.672;10.250;2023-05-27T01:38:14;102566.69;;;7.93;100.00
1736;BME280;865;53.672;10.250;2023-05-27T01:40:42;102560.00;;;7.63;100.00
1736;BME280;865;53.672;10.250;2023-05-27T01:43:11;102558.13;;;7.56;100.00
1736;BME280;865;53.672;10.250;2023-05-27T01:45:38;102558.88;;;7.50;100.00
1736;BME280;865;53.672;10.250;2023-05-27T01:48:04;102562.59;;;7.63;100.00
1736;BME280;865;53.672;10.250;2023-05-27T01:50:31;102550.72;;;8.17;100.00
1736;BME280;865;53.672;10.250;2023-05-27T01:52:59;102549.75;;;7.69;100.00
1736;BME280;865;53.672;10.250;2023-05-27T01:55:26;102547.06;;;7.65;100.00
1736;BME280;865;53.672;10.250;2023-05-27T01:57:53;102554.56;;;7.93;100.00
1736;BME280;865;53.672;10.250;2023-05-27T02:00:19;102553.75;;;7.94;100.00
1736;BME280;865;53.672;10.250;2023-05-27T02:02:46;102545.47;;;7.71;100.00
1736;BME280;865;53.672;10.250;2023-05-27T02:05:12;102545.47;;;7.73;100.00
1736;BME280;865;53.672;10.250;2023-05-27T02:07:39;102548.31;;;7.84;100.00
1736;BME280;865;53.672;10.250;2023-05-27T02:10:06;102553.69;;;7.93;100.00
1736;BME280;865;53.672;10.250;2023-05-27T02:12:32;102547.88;;;8.03;100.00
1736;BME280;865;53.672;10.250;2023-05-27T02:14:59;102541.56;;;7.92;100.00
1736;BME280;865;53.672;10.250;2023-05-27T02:17:25;102535.38;;;7.85;100.00
1736;BME280;865;53.672;10.250;2023-05-27T02:19:53;102537.00;;;7.80;100.00
1736;BME280;865;53.672;10.250;2023-05-27T02:22:22;102548.22;;;7.38;100.00
1736;BME280;865;53.672;10.250;2023-05-27T02:24:48;102542.16;;;7.39;100.00
1736;BME280;865;53.672;10.250;2023-05-27T02:27:15;102535.50;;;7.50;100.00
1736;BME280;865;53.672;10.250;2023-05-27T02:29:41;102540.44;;;7.40;100.00
1736;BME280;865;53.672;10.250;2023-05-27T02:32:07;102551.53;;;7.33;100.00
1736;BME280;865;53.672;10.250;2023-05-27T02:34:34;102548.09;;;7.34;100.00
1736;BME280;865;53.672;10.250;2023-05-27T02:37:04;102550.63;;;7.30;100.00
1736;BME280;865;53.672;10.250;2023-05-27T02:39:30;102548.81;;;7.26;100.00
1736;BME280;865;53.672;10.250;2023-05-27T02:41:57;102549.50;;;7.19;100.00
1736;BME280;865;53.672;10.250;2023-05-27T02:44:23;102550.41;;;7.21;100.00
1736;BME280;865;53.672;10.250;2023-05-27T02:46:50;102551.22;;;7.19;100.00
1736;BME280;865;53.672;10.250;2023-05-27T02:49:16;102553.16;;;7.27;100.00
1736;BME280;865;53.672;10.250;2023-05-27T02:51:44;102560.72;;;7.18;100.00
1736;BME280;865;53.672;10.250;2023-05-27T02:54:11;102554.47;;;7.10;100.00
1736;BME280;865;53.672;10.250;2023-05-27T02:56:37;102554.81;;;7.24;100.00
1736;BME280;865;53.672;10.250;2023-05-27T02:59:03;102557.72;;;7.38;100.00
1736;BME280;865;53.672;10.250;2023-05-27T03:01:30;102553.09;;;7.64;100.00
1736;BME280;865;53.672;10.250;2023-05-27T03:03:56;102552.22;;;7.25;100.00
1736;BME280;865;53.672;10.250;2023-05-27T03:06:22;102545.56;;;7.35;100.00
1736;BME280;865;53.672;10.250;2023-05-27T03:08:49;102559.13;;;7.25;100.00
1736;BME280;865;53.672;10.250;2023-05-27T03:11:15;102555.59;;;7.21;100.00
1736;BME280;865;53.672;10.250;2023-05-27T03:13:42;102549.69;;;7.27;100.00
1736;BME280;865;53.672;10.250;2023-05-27T03:16:08;102550.41;;;7.21;100.00
1736;BME280;865;53.672;10.250;2023-05-27T03:18:34;102559.94;;;7.22;100.00
1736;BME280;865;53.672;10.250;2023-05-27T03:21:01;102557.53;;;7.30;100.00
1736;BME280;865;53.672;10.250;2023-05-27T03:23:27;102547.09;;;7.28;100.00
1736;BME280;865;53.672;10.250;2023-05-27T03:25:54;102546.66;;;7.08;100.00
1736;BME280;865;53.672;10.250;2023-05-27T03:28:20;102545.53;;;6.99;100.00
1736;BME280;865;53.672;10.250;2023-05-27T03:30:47;102551.66;;;7.01;100.00
1736;BME280;865;53.672;10.250;2023-05-27T03:33:14;102543.41;;;7.17;100.00
1736;BME280;865;53.672;10.250;2023-05-27T03:35:41;102542.91;;;7.34;100.00
1736;BME280;865;53.672;10.250;2023-05-27T03:38:07;102543.25;;;7.11;100.00
1736;BME280;865;53.672;10.250;2023-05-27T03:40:33;102555.97;;;7.00;100.00
1736;BME280;865;53.672;10.250;2023-05-27T03:43:00;102557.75;;;7.03;100.00
1736;BME280;865;53.672;10.250;2023-05-27T03:45:26;102553.72;;;7.14;100.00
1736;BME280;865;53.672;10.250;2023-05-27T03:47:53;102554.16;;;7.34;100.00
1736;BME280;865;53.672;10.250;2023-05-27T03:50:19;102552.00;;;7.16;100.00
1736;BME280;865;53.672;10.250;2023-05-27T03:52:46;102555.66;;;7.23;100.00
1736;BME280;865;53.672;10.250;2023-05-27T03:55:12;102561.56;;;7.17;100.00
1736;BME280;865;53.672;10.250;2023-05-27T03:57:39;102561.66;;;7.22;100.00
1736;BME280;865;53.672;10.250;2023-05-27T04:00:06;102559.59;;;7.07;100.00
1736;BME280;865;53.672;10.250;2023-05-27T04:02:38;102566.28;;;6.99;100.00
1736;BME280;865;53.672;10.250;2023-05-27T04:05:05;102564.16;;;7.17;100.00
1736;BME280;865;53.672;10.250;2023-05-27T04:07:32;102563.66;;;7.32;100.00
1736;BME280;865;53.672;10.250;2023-05-27T04:09:58;102554.13;;;7.33;100.00
1736;BME280;865;53.672;10.250;2023-05-27T04:12:24;102563.38;;;7.20;100.00
1736;BME280;865;53.672;10.250;2023-05-27T04:14:51;102567.00;;;7.28;100.00
1736;BME280;865;53.672;10.250;2023-05-27T04:17:17;102555.75;;;7.27;100.00
1736;BME280;865;53.672;10.250;2023-05-27T04:19:44;102561.66;;;7.20;100.00
1736;BME280;865;53.672;10.250;2023-05-27T04:22:11;102565.28;;;7.28;100.00
1736;BME280;865;53.672;10.250;2023-05-27T04:24:37;102562.28;;;7.49;100.00
1736;BME280;865;53.672;10.250;2023-05-27T04:27:05;102556.34;;;7.55;100.00
1736;BME280;865;53.672;10.250;2023-05-27T04:29:33;102556.91;;;7.80;100.00
1736;BME280;865;53.672;10.250;2023-05-27T04:31:59;102557.59;;;7.71;100.00
1736;BME280;865;53.672;10.250;2023-05-27T04:34:26;102550.00;;;7.80;100.00
1736;BME280;865;53.672;10.250;2023-05-27T04:36:53;102550.97;;;7.85;100.00
1736;BME280;865;53.672;10.250;2023-05-27T04:39:19;102551.84;;;7.86;100.00
1736;BME280;865;53.672;10.250;2023-05-27T04:41:46;102555.91;;;8.15;100.00
1736;BME280;865;53.672;10.250;2023-05-27T04:44:12;102547.13;;;8.10;100.00
1736;BME280;865;53.672;10.250;2023-05-27T04:46:39;102541.28;;;8.22;100.00
1736;BME280;865;53.672;10.250;2023-05-27T04:49:07;102544.16;;;8.36;100.00
1736;BME280;865;53.672;10.250;2023-05-27T04:51:33;102547.19;;;9.10;100.00
1736;BME280;865;53.672;10.250;2023-05-27T04:54:02;102525.34;;;9.63;100.00
1736;BME280;865;53.672;10.250;2023-05-27T04:56:28;102523.44;;;8.90;100.00
1736;BME280;865;53.672;10.250;2023-05-27T04:58:55;102524.78;;;9.22;100.00
1736;BME280;865;53.672;10.250;2023-05-27T05:01:22;102519.19;;;9.55;100.00
1736;BME280;865;53.672;10.250;2023-05-27T05:03:51;102515.25;;;9.89;100.00
1736;BME280;865;53.672;10.250;2023-05-27T05:06:39;102515.63;;;9.51;100.00
1736;BME280;865;53.672;10.250;2023-05-27T05:09:06;102524.09;;;9.35;100.00
1736;BME280;865;53.672;10.250;2023-05-27T05:11:35;102519.19;;;9.56;100.00
1736;BME280;865;53.672;10.250;2023-05-27T05:14:01;102524.81;;;9.89;100.00
1736;BME280;865;53.672;10.250;2023-05-27T05:16:28;102513.75;;;10.10;100.00
1736;BME280;865;53.672;10.250;2023-05-27T05:18:55;102507.78;;;10.23;100.00
1736;BME280;865;53.672;10.250;2023-05-27T05:21:21;102503.72;;;10.48;100.00
1736;BME280;865;53.672;10.250;2023-05-27T05:23:47;102491.06;;;10.97;100.00
1736;BME280;865;53.672;10.250;2023-05-27T05:26:14;102497.84;;;10.73;100.00
1736;BME280;865;53.672;10.250;2023-05-27T05:28:40;102493.50;;;10.72;100.00
1736;BME280;865;53.672;10.250;2023-05-27T05:31:07;102498.72;;;10.71;100.00
1736;BME280;865;53.672;10.250;2023-05-27T05:33:33;102497.84;;;10.77;100.00
1736;BME280;865;53.672;10.250;2023-05-27T05:36:01;102506.63;;;10.82;100.00
1736;BME280;865;53.672;10.250;2023-05-27T05:38:27;102498.84;;;10.89;100.00
1736;BME280;865;53.672;10.250;2023-05-27T05:40:53;102504.84;;;10.78;100.00
1736;BME280;865;53.672;10.250;2023-05-27T05:43:20;102505.16;;;11.19;100.00
1736;BME280;865;53.672;10.250;2023-05-27T05:45:47;102504.97;;;10.94;100.00
1736;BME280;865;53.672;10.250;2023-05-27T05:48:13;102501.63;;;11.14;100.00
1736;BME280;865;53.672;10.250;2023-05-27T05:50:40;102508.75;;;11.43;100.00
1736;BME280;865;53.672;10.250;2023-05-27T05:53:07;102502.63;;;11.39;100.00
1736;BME280;865;53.672;10.250;2023-05-27T05:55:33;102505.22;;;11.36;100.00
1736;BME280;865;53.672;10.250;2023-05-27T05:58:00;102508.75;;;11.43;100.00
1736;BME280;865;53.672;10.250;2023-05-27T06:00:27;102506.22;;;11.58;100.00
1736;BME280;865;53.672;10.250;2023-05-27T06:02:53;102508.69;;;11.32;100.00
1736;BME280;865;53.672;10.250;2023-05-27T06:05:20;102509.53;;;11.29;100.00
1736;BME280;865;53.672;10.250;2023-05-27T06:07:48;102505.38;;;11.63;100.00
1736;BME280;865;53.672;10.250;2023-05-27T06:10:14;102512.41;;;11.75;100.00
1736;BME280;865;53.672;10.250;2023-05-27T06:12:43;102510.75;;;11.97;100.00
1736;BME280;865;53.672;10.250;2023-05-27T06:15:09;102506.41;;;11.93;100.00
1736;BME280;865;53.672;10.250;2023-05-27T06:17:36;102506.44;;;12.12;100.00
1736;BME280;865;53.672;10.250;2023-05-27T06:20:02;102510.78;;;12.06;100.00
1736;BME280;865;53.672;10.250;2023-05-27T06:22:29;102506.47;;;12.31;100.00
1736;BME280;865;53.672;10.250;2023-05-27T06:24:56;102498.63;;;12.36;100.00
1736;BME280;865;53.672;10.250;2023-05-27T06:27:22;102503.88;;;12.45;100.00
1736;BME280;865;53.672;10.250;2023-05-27T06:29:49;102509.09;;;12.48;100.00
1736;BME280;865;53.672;10.250;2023-05-27T06:32:15;102510.88;;;12.59;100.00
1736;BME280;865;53.672;10.250;2023-05-27T06:34:42;102503.88;;;12.91;100.00
1736;BME280;865;53.672;10.250;2023-05-27T06:37:08;102505.63;;;12.74;100.00
1736;BME280;865;53.672;10.250;2023-05-27T06:39:35;102509.09;;;12.51;100.00
1736;BME280;865;53.672;10.250;2023-05-27T06:42:01;102510.84;;;12.83;100.00
1736;BME280;865;53.672;10.250;2023-05-27T06:44:28;102504.72;;;12.87;100.00
1736;BME280;865;53.672;10.250;2023-05-27T06:46:54;102510.84;;;12.63;100.00
1736;BME280;865;53.672;10.250;2023-05-27T06:49:20;102509.97;;;13.04;100.00
1736;BME280;865;53.672;10.250;2023-05-27T06:51:47;102502.94;;;13.23;100.00
1736;BME280;865;53.672;10.250;2023-05-27T06:54:13;102511.72;;;12.81;100.00
1736;BME280;865;53.672;10.250;2023-05-27T06:56:40;102510.84;;;12.83;100.00
1736;BME280;865;53.672;10.250;2023-05-27T06:59:06;102497.72;;;13.12;100.00
1736;BME280;865;53.672;10.250;2023-05-27T07:01:32;102495.91;;;13.51;100.00
1736;BME280;865;53.672;10.250;2023-05-27T07:03:59;102494.94;;;13.67;100.00
1736;BME280;865;53.672;10.250;2023-05-27T07:06:26;102488.88;;;13.61;100.00
1736;BME280;865;53.672;10.250;2023-05-27T07:08:52;102487.00;;;13.84;100.00
1736;BME280;865;53.672;10.250;2023-05-27T07:11:18;102498.22;;;14.14;100.00
1736;BME280;865;53.672;10.250;2023-05-27T07:13:45;102502.78;;;13.78;100.00
1736;BME280;865;53.672;10.250;2023-05-27T07:16:11;102497.47;;;13.92;100.00
1736;BME280;865;53.672;10.250;2023-05-27T07:18:38;102483.38;;;14.05;100.00
1736;BME280;865;53.672;10.250;2023-05-27T07:21:04;102486.75;;;14.24;100.00
1736;BME280;865;53.672;10.250;2023-05-27T07:23:31;102497.22;;;14.29;100.00
1736;BME280;865;53.672;10.250;2023-05-27T07:25:57;102484.16;;;14.18;100.00
1736;BME280;865;53.672;10.250;2023-05-27T07:28:23;102485.78;;;14.41;100.00
1736;BME280;865;53.672;10.250;2023-05-27T07:30:50;102485.78;;;14.39;100.00
1736;BME280;865;53.672;10.250;2023-05-27T07:33:17;102477.16;;;14.20;100.00
1736;BME280;865;53.672;10.250;2023-05-27T07:35:43;102469.94;;;14.57;100.00
1736;BME280;865;53.672;10.250;2023-05-27T07:38:10;102477.81;;;14.51;100.00
1736;BME280;865;53.672;10.250;2023-05-27T07:40:36;102476.09;;;14.47;100.00
1736;BME280;865;53.672;10.250;2023-05-27T07:43:03;102474.19;;;14.68;100.00
1736;BME280;865;53.672;10.250;2023-05-27T07:45:29;102477.97;;;14.30;100.00
1736;BME280;865;53.672;10.250;2023-05-27T07:47:56;102484.78;;;14.58;100.00
1736;BME280;865;53.672;10.250;2023-05-27T07:50:23;102479.88;;;14.03;100.00
1736;BME280;865;53.672;10.250;2023-05-27T07:52:50;102469.31;;;14.16;100.00
1736;BME280;865;53.672;10.250;2023-05-27T07:55:16;102468.97;;;14.65;100.00
1736;BME280;865;53.672;10.250;2023-05-27T07:57:43;102473.84;;;15.04;100.00
1736;BME280;865;53.672;10.250;2023-05-27T08:00:10;102472.75;;;15.22;100.00
1736;BME280;865;53.672;10.250;2023-05-27T08:02:36;102461.19;;;15.39;100.00
1736;BME280;865;53.672;10.250;2023-05-27T08:05:03;102464.44;;;15.58;100.00
1736;BME280;865;53.672;10.250;2023-05-27T08:07:32;102463.41;;;15.72;100.00
1736;BME280;865;53.672;10.250;2023-05-27T08:09:59;102461.91;;;15.52;100.00
1736;BME280;865;53.672;10.250;2023-05-27T08:12:25;102457.41;;;15.60;100.00
1736;BME280;865;53.672;10.250;2023-05-27T08:14:52;102452.66;;;15.89;100.00
1736;BME280;865;53.672;10.250;2023-05-27T08:17:18;102451.22;;;16.27;100.00
1736;BME280;865;53.672;10.250;2023-05-27T08:19:44;102443.00;;;16.46;100.00
1736;BME280;865;53.672;10.250;2023-05-27T08:22:11;102441.00;;;16.60;100.00
1736;BME280;865;53.672;10.250;2023-05-27T08:24:37;102442.81;;;16.04;100.00
1736;BME280;865;53.672;10.250;2023-05-27T08:27:04;102451.91;;;15.81;100.00
1736;BME280;865;53.672;10.250;2023-05-27T08:29:33;102449.06;;;15.95;100.00
1736;BME280;865;53.672;10.250;2023-05-27T08:31:59;102449.09;;;15.93;100.00
1736;BME280;865;53.672;10.250;2023-05-27T08:34:26;102445.09;;;15.63;100.00
1736;BME280;865;53.672;10.250;2023-05-27T08:36:53;102435.97;;;15.90;100.00
1736;BME280;865;53.672;10.250;2023-05-27T08:39:19;102439.66;;;16.36;100.00
1736;BME280;865;53.672;10.250;2023-05-27T08:41:46;102439.13;;;16.14;100.00
1736;BME280;865;53.672;10.250;2023-05-27T08:44:13;102432.34;;;15.99;100.00
1736;BME280;865;53.672;10.250;2023-05-27T08:46:44;102432.47;;;15.90;100.00
1736;BME280;865;53.672;10.250;2023-05-27T08:49:11;102430.47;;;16.06;100.00
1736;BME280;865;53.672;10.250;2023-05-27T08:51:38;102423.91;;;15.06;100.00
1736;BME280;865;53.672;10.250;2023-05-27T08:54:08;102424.56;;;15.22;100.00
1736;BME280;865;53.672;10.250;2023-05-27T08:56:37;102424.34;;;15.40;100.00
1736;BME280;865;53.672;10.250;2023-05-27T08:59:05;102417.97;;;15.58;100.00
1736;BME280;865;53.672;10.250;2023-05-27T09:01:33;102418.13;;;15.46;100.00
1736;BME280;865;53.672;10.250;2023-05-27T09:03:59;102405.66;;;15.62;100.00
1736;BME280;865;53.672;10.250;2023-05-27T09:06:26;102403.53;;;15.90;100.00
1736;BME280;865;53.672;10.250;2023-05-27T09:08:52;102398.34;;;16.39;100.00
1736;BME280;865;53.672;10.250;2023-05-27T09:11:23;102394.53;;;16.56;100.00
1736;BME280;865;53.672;10.250;2023-05-27T09:13:53;102395.22;;;17.14;100.00
1736;BME280;865;53.672;10.250;2023-05-27T09:16:20;102397.53;;;17.29;100.00
1736;BME280;865;53.672;10.250;2023-05-27T09:18:47;102400.81;;;16.97;100.00
1736;BME280;865;53.672;10.250;2023-05-27T09:21:14;102391.25;;;17.35;100.00
1736;BME280;865;53.672;10.250;2023-05-27T09:23:41;102404.06;;;17.11;100.00
1736;BME280;865;53.672;10.250;2023-05-27T09:26:08;102395.25;;;16.64;100.00
1736;BME280;865;53.672;10.250;2023-05-27T09:28:37;102392.28;;;16.34;100.00
1736;BME280;865;53.672;10.250;2023-05-27T09:31:06;102405.03;;;16.06;100.00
1736;BME280;865;53.672;10.250;2023-05-27T09:33:37;102403.59;;;16.39;100.00
1736;BME280;865;53.672;10.250;2023-05-27T09:36:05;102391.19;;;16.45;100.00
1736;BME280;865;53.672;10.250;2023-05-27T09:38:34;102392.00;;;16.98;100.00
1736;BME280;865;53.672;10.250;2023-05-27T09:41:01;102398.91;;;17.05;100.00
1736;BME280;865;53.672;10.250;2023-05-27T09:43:29;102402.91;;;16.79;100.00
1736;BME280;865;53.672;10.250;2023-05-27T09:46:00;102397.75;;;17.18;100.00
1736;BME280;865;53.672;10.250;2023-05-27T09:48:29;102393.06;;;17.31;100.00
1736;BME280;865;53.672;10.250;2023-05-27T09:50:59;102396.69;;;17.27;100.00
1736;BME280;865;53.672;10.250;2023-05-27T09:53:27;102383.50;;;17.67;100.00
1736;BME280;865;53.672;10.250;2023-05-27T09:55:54;102380.97;;;17.22;100.00
1736;BME280;865;53.672;10.250;2023-05-27T09:58:22;102380.09;;;16.78;100.00
1736;BME280;865;53.672;10.250;2023-05-27T10:00:49;102384.94;;;16.52;100.00
1736;BME280;865;53.672;10.250;2023-05-27T10:03:18;102383.88;;;16.11;100.00
1736;BME280;865;53.672;10.250;2023-05-27T10:05:49;102371.44;;;16.21;100.00
1736;BME280;865;53.672;10.250;2023-05-27T10:08:16;102377.72;;;16.13;100.00
1736;BME280;865;53.672;10.250;2023-05-27T10:10:49;102376.63;;;16.25;100.00
1736;BME280;865;53.672;10.250;2023-05-27T10:13:18;102366.31;;;16.61;100.00
1736;BME280;865;53.672;10.250;2023-05-27T10:15:48;102374.44;;;16.97;100.00
1736;BME280;865;53.672;10.250;2023-05-27T10:18:26;102371.22;;;17.24;100.00
1736;BME280;865;53.672;10.250;2023-05-27T10:20:59;102361.69;;;17.58;100.00
1736;BME280;865;53.672;10.250;2023-05-27T10:23:27;102363.81;;;17.42;100.00
1736;BME280;865;53.672;10.250;2023-05-27T10:26:06;102358.81;;;17.70;100.00
1736;BME280;865;53.672;10.250;2023-05-27T10:28:34;102357.31;;;17.95;100.00
1736;BME280;865;53.672;10.250;2023-05-27T10:31:09;102361.84;;;17.90;100.00
1736;BME280;865;53.672;10.250;2023-05-27T10:33:38;102355.06;;;18.16;100.00
1736;BME280;865;53.672;10.250;2023-05-27T10:36:15;102354.97;;;18.19;100.00
1736;BME280;865;53.672;10.250;2023-05-27T10:38:42;102346.41;;;18.09;100.00
1736;BME280;865;53.672;10.250;2023-05-27T10:41:09;102352.53;;;17.74;100.00
1736;BME280;865;53.672;10.250;2023-05-27T10:43:36;102347.47;;;18.02;100.00
1736;BME280;865;53.672;10.250;2023-05-27T10:46:09;102346.22;;;18.17;100.00
1736;BME280;865;53.672;10.250;2023-05-27T10:48:38;102340.00;;;17.84;100.00
1736;BME280;865;53.672;10.250;2023-05-27T10:51:07;102353.25;;;17.82;100.00
1736;BME280;865;53.672;10.250;2023-05-27T10:53:35;102345.78;;;17.61;100.00
1736;BME280;865;53.672;10.250;2023-05-27T10:56:02;102334.81;;;17.81;100.00
1736;BME280;865;53.672;10.250;2023-05-27T10:58:33;102335.34;;;17.95;100.00
1736;BME280;865;53.672;10.250;2023-05-27T11:01:08;102335.03;;;18.40;100.00
1736;BME280;865;53.672;10.250;2023-05-27T11:03:35;102340.97;;;18.15;100.00
1736;BME280;865;53.672;10.250;2023-05-27T11:06:04;102339.78;;;17.56;100.00
1736;BME280;865;53.672;10.250;2023-05-27T11:08:34;102333.00;;;17.83;100.00
1736;BME280;865;53.672;10.250;2023-05-27T11:11:07;102337.50;;;17.77;100.00
1736;BME280;865;53.672;10.250;2023-05-27T11:13:36;102332.59;;;17.22;100.00
1736;BME280;865;53.672;10.250;2023-05-27T11:16:04;102330.66;;;17.31;100.00
1736;BME280;865;53.672;10.250;2023-05-27T11:18:39;102324.81;;;17.56;100.00
1736;BME280;865;53.672;10.250;2023-05-27T11:21:07;102320.50;;;17.89;100.00
1736;BME280;865;53.672;10.250;2023-05-27T11:23:39;102316.66;;;18.03;100.00
1736;BME280;865;53.672;10.250;2023-05-27T11:26:13;102317.41;;;18.40;100.00
1736;BME280;865;53.672;10.250;2023-05-27T11:28:51;102313.66;;;18.49;95.11
1736;BME280;865;53.672;10.250;2023-05-27T11:31:23;102312.50;;;18.59;97.40
1736;BME280;865;53.672;10.250;2023-05-27T11:33:53;102312.00;;;18.78;89.71
1736;BME280;865;53.672;10.250;2023-05-27T11:36:20;102305.31;;;18.32;92.71
1736;BME280;865;53.672;10.250;2023-05-27T11:38:56;102307.84;;;18.36;100.00
1736;BME280;865;53.672;10.250;2023-05-27T11:41:27;102304.22;;;17.70;100.00
1736;BME280;865;53.672;10.250;2023-05-27T11:44:08;102296.72;;;17.91;100.00
1736;BME280;865;53.672;10.250;2023-05-27T11:49:06;102290.38;;;18.31;100.00
1736;BME280;865;53.672;10.250;2023-05-27T11:51:36;102281.03;;;17.47;100.00
1736;BME280;865;53.672;10.250;2023-05-27T11:54:03;102272.88;;;17.58;100.00
1736;BME280;865;53.672;10.250;2023-05-27T11:56:30;102275.53;;;17.94;100.00
1736;BME280;865;53.672;10.250;2023-05-27T11:58:57;102275.38;;;18.33;100.00
1736;BME280;865;53.672;10.250;2023-05-27T12:01:25;102270.03;;;18.34;100.00
1736;BME280;865;53.672;10.250;2023-05-27T12:03:54;102267.44;;;18.95;95.74
1736;BME280;865;53.672;10.250;2023-05-27T12:06:20;102257.91;;;19.18;100.00
1736;BME280;865;53.672;10.250;2023-05-27T12:08:47;102258.56;;;18.96;100.00
1736;BME280;865;53.672;10.250;2023-05-27T12:11:13;102253.25;;;19.26;96.05
1736;BME280;865;53.672;10.250;2023-05-27T12:13:39;102245.41;;;19.49;99.53
1736;BME280;865;53.672;10.250;2023-05-27T12:16:06;102239.78;;;19.05;92.87
1736;BME280;865;53.672;10.250;2023-05-27T12:18:33;102237.25;;;19.29;92.03
1736;BME280;865;53.672;10.250;2023-05-27T12:20:59;102231.38;;;19.74;94.44
1736;BME280;865;53.672;10.250;2023-05-27T12:23:26;102228.31;;;19.86;92.41
1736;BME280;865;53.672;10.250;2023-05-27T12:25:52;102228.13;;;19.66;89.88
1736;BME280;865;53.672;10.250;2023-05-27T12:28:18;102235.88;;;19.17;91.85
1736;BME280;865;53.672;10.250;2023-05-27T12:30:46;102220.53;;;19.28;88.86
1736;BME280;865;53.672;10.250;2023-05-27T12:33:12;102222.50;;;19.22;90.70
1736;BME280;865;53.672;10.250;2023-05-27T12:35:39;102213.66;;;19.23;95.97
1736;BME280;865;53.672;10.250;2023-05-27T12:38:06;102218.28;;;19.16;97.92
1736;BME280;865;53.672;10.250;2023-05-27T12:40:32;102216.25;;;18.96;100.00
1736;BME280;865;53.672;10.250;2023-05-27T12:42:59;102206.44;;;19.00;100.00
1736;BME280;865;53.672;10.250;2023-05-27T12:45:26;102205.28;;;19.08;100.00
1736;BME280;865;53.672;10.250;2023-05-27T12:47:53;102208.81;;;19.35;97.11
1736;BME280;865;53.672;10.250;2023-05-27T12:50:20;102199.97;;;19.37;97.27
1736;BME280;865;53.672;10.250;2023-05-27T12:52:48;102189.00;;;19.21;86.31
1736;BME280;865;53.672;10.250;2023-05-27T12:55:17;102195.63;;;19.07;92.37
1736;BME280;865;53.672;10.250;2023-05-27T12:57:45;102188.91;;;19.24;83.90
1736;BME280;865;53.672;10.250;2023-05-27T13:00:13;102180.19;;;19.48;84.16
1736;BME280;865;53.672;10.250;2023-05-27T13:02:40;102182.72;;;19.25;84.09
1736;BME280;865;53.672;10.250;2023-05-27T13:05:07;102174.47;;;19.61;81.58
1736;BME280;865;53.672;10.250;2023-05-27T13:07:35;102171.31;;;19.76;88.24
1736;BME280;865;53.672;10.250;2023-05-27T13:10:04;102172.47;;;19.92;80.91
1736;BME280;865;53.672;10.250;2023-05-27T13:12:32;102169.22;;;20.09;80.36